CRD weather

General E. Mosconi Airport
Comodoro Rivadavia, Chubut Province, Argentina

Public forecast

Using degrees Celsius for public forecast. Weather courtesy of forecast.io.

Current aviation weather report (METAR) for General E. Mosconi Airport

Retrieved 2019/11/20 03:00 UTC (12 minutes ago):

SAVC 200300Z 27028G45KT CAVOK 13/M02 Q1002

Aviation forecast (TAF) for General E. Mosconi Airport

Retrieved 2019-11-20 00:03 UTC (3 hours ago):

TAF TAF SAVC 192300Z 2000/2024 27030G48KT 8000 DU FEW030 OVC070 TX24/2018Z TN10/2010Z BECMG 2002/2004 27020G35KT 6000 DU SCT030 BECMG 2009/2011 27015G30KT CAVOK PROB30 TEMPO 2018/2023 9999 -RADZ SCT030 BKN060